This is the latest recevied weather packets stored in our database for station/object K3SV. If no packets are shown the sender has not sent any weather packets the latest 10 day(s).
| Time | Temp. | Humidity | Pressure | Rain* | Wind** | Luminosity | Snow |
|---|---|---|---|---|---|---|---|
| 1777931256 | 27.78° C | 48% | 1014 hPa | 0 mm | - | 317 W/m² | - |
| 1777930953 | 28.89° C | 47% | 1013.8 hPa | 0 mm | - | 143 W/m² | - |
| 1777930650 | 28.33° C | 45% | 1014 hPa | 0 mm | - | 295 W/m² | - |
| 1777930346 | 27.78° C | 47% | 1014 hPa | 0 mm | - | 374 W/m² | - |
| 1777930043 | 28.33° C | 46% | 1014 hPa | 0 mm | - | 334 W/m² | - |
| 1777929740 | 28.89° C | 45% | 1013.9 hPa | 0 mm | - | 409 W/m² | - |
| 1777929437 | 28.89° C | 44% | 1014 hPa | 0 mm | - | 435 W/m² | - |
| 1777929133 | 28.33° C | 43% | 1014.2 hPa | 0 mm | - | 466 W/m² | - |
| 1777928830 | 27.78° C | 44% | 1014 hPa | 0 mm | - | 238 W/m² | - |
| 1777928528 | 27.78° C | 44% | 1014.3 hPa | 0 mm | - | 244 W/m² | - |
| 1777928224 | 28.33° C | 44% | 1014.2 hPa | 0 mm | - | 119 W/m² | - |
| 1777927921 | 28.89° C | 41% | 1014.1 hPa | 0 mm | - | 267 W/m² | - |
| 1777927620 | 28.33° C | 42% | 1014 hPa | 0 mm | - | 515 W/m² | - |
| 1777927319 | 29.44° C | 39% | 1014.2 hPa | 0 mm | - | 513 W/m² | - |
| 1777927017 | 28.89° C | 40% | 1014.2 hPa | 0 mm | - | 523 W/m² | - |
| 1777926714 | 28.89° C | 40% | 1014 hPa | 0 mm | - | 553 W/m² | - |
| 1777926408 | 28.89° C | 39% | 1014.3 hPa | 0 mm | - | 557 W/m² | - |
| 1777926106 | 28.89° C | 40% | 1014.3 hPa | 0 mm | - | 553 W/m² | - |
| 1777925803 | 29.44° C | 38% | 1014.4 hPa | 0 mm | - | 582 W/m² | - |
| 1777925500 | 28.89° C | 39% | 1014.4 hPa | 0 mm | - | 562 W/m² | - |
| 1777925197 | 28.89° C | 38% | 1014.5 hPa | 0 mm | - | 591 W/m² | - |
| 1777924894 | 28.33° C | 38% | 1014.7 hPa | 0 mm | - | 300 W/m² | - |
| 1777924590 | 28.89° C | 37% | 1014.9 hPa | 0 mm | - | 424 W/m² | - |
| 1777924286 | 28.33° C | 40% | 1014.7 hPa | 0 mm | - | 617 W/m² | - |
| 1777923983 | 28.89° C | 38% | 1014.8 hPa | 0 mm | - | 627 W/m² | - |
* Rain latest hour (hover to see other rain measurements)
** Current wind speed in m/s (hover to see current wind gust speed)